createdAt,value
2023-03-10T07:05:24.638Z,11.00
2023-03-10T07:07:51.611Z,10.90
2023-03-10T07:10:18.668Z,11.14
2023-03-10T07:12:45.952Z,11.32
2023-03-10T07:15:12.750Z,11.54
2023-03-10T07:17:39.484Z,11.47
2023-03-10T07:20:06.924Z,11.49
2023-03-10T07:22:33.624Z,11.62
2023-03-10T07:25:00.296Z,11.81
2023-03-10T07:27:26.999Z,12.02
2023-03-10T07:29:53.692Z,12.16
2023-03-10T07:32:20.482Z,12.35
2023-03-10T07:34:47.229Z,12.55
2023-03-10T07:37:13.959Z,12.87
2023-03-10T07:39:40.680Z,13.24
2023-03-10T07:42:07.671Z,13.52
2023-03-10T07:44:34.461Z,13.80
2023-03-10T07:47:01.299Z,14.09
2023-03-10T07:49:28.027Z,14.53
2023-03-10T07:51:55.164Z,14.86
2023-03-10T07:54:21.954Z,14.88
2023-03-10T07:56:51.016Z,14.89
2023-03-10T07:59:17.992Z,14.98
2023-03-10T08:01:44.746Z,14.92
2023-03-10T08:04:12.604Z,14.85
2023-03-10T08:06:39.530Z,15.36
2023-03-10T08:09:06.240Z,15.59
2023-03-10T08:11:33.017Z,15.51
2023-03-10T08:13:59.966Z,15.83
2023-03-10T08:16:27.015Z,15.77
2023-03-10T08:18:54.647Z,15.94
2023-03-10T08:21:21.988Z,16.04
2023-03-10T08:23:48.756Z,16.19
2023-03-10T08:26:18.070Z,16.43
2023-03-10T08:28:45.242Z,16.79
2023-03-10T08:31:16.959Z,17.09
2023-03-10T08:33:44.706Z,17.39
2023-03-10T08:36:15.019Z,17.74
2023-03-10T08:38:42.296Z,17.89
2023-03-10T08:41:14.982Z,18.24
2023-03-10T08:43:42.111Z,18.87
2023-03-10T08:46:10.165Z,18.54
2023-03-10T08:48:36.988Z,18.62
2023-03-10T08:51:04.357Z,18.87
2023-03-10T08:53:31.102Z,19.24
2023-03-10T08:55:58.089Z,19.18
2023-03-10T08:58:24.926Z,19.61
2023-03-10T09:00:52.197Z,19.69
2023-03-10T09:03:19.549Z,20.08
2023-03-10T09:05:47.137Z,19.74
2023-03-10T09:08:14.171Z,19.16
2023-03-10T09:10:42.131Z,19.66
2023-03-10T09:13:14.158Z,19.99
2023-03-10T09:15:41.676Z,20.26
2023-03-10T09:18:10.104Z,20.19
2023-03-10T09:20:37.829Z,20.26
2023-03-10T09:23:05.463Z,20.46
2023-03-10T09:25:32.264Z,20.84
2023-03-10T09:27:59.017Z,20.93
2023-03-10T09:30:26.422Z,20.51
2023-03-10T09:32:53.439Z,20.12
2023-03-10T09:35:20.868Z,19.76
2023-03-10T09:37:47.695Z,19.49
2023-03-10T09:40:20.218Z,19.60
2023-03-10T09:43:04.113Z,20.01
2023-03-10T09:45:34.107Z,19.97
2023-03-10T09:48:28.207Z,19.41
2023-03-10T09:50:56.721Z,19.01
2023-03-10T09:53:44.514Z,19.23
2023-03-10T09:56:16.129Z,19.62
2023-03-10T09:58:46.465Z,19.86
2023-03-10T10:01:17.232Z,19.73
2023-03-10T10:03:53.179Z,19.56
2023-03-10T10:06:35.365Z,19.81
2023-03-10T10:09:29.884Z,19.84
2023-03-10T10:11:56.648Z,19.88
2023-03-10T10:14:29.898Z,19.83
2023-03-10T10:17:24.387Z,20.19
2023-03-10T10:19:52.793Z,20.80
2023-03-10T10:22:24.522Z,21.05
2023-03-10T10:25:13.496Z,20.51
2023-03-10T10:27:41.740Z,20.70
2023-03-10T10:30:32.410Z,21.39
2023-03-10T10:33:07.334Z,21.88
2023-03-10T10:35:36.792Z,21.74
2023-03-10T10:38:19.182Z,21.78
2023-03-10T10:41:04.596Z,22.34
2023-03-10T10:44:03.082Z,22.40
2023-03-10T10:46:30.315Z,21.98
2023-03-10T10:49:19.723Z,22.23
2023-03-10T10:52:03.141Z,22.60
2023-03-10T10:54:38.447Z,22.97
2023-03-10T10:57:20.173Z,22.83
2023-03-10T10:59:47.187Z,23.28
2023-03-10T11:02:32.705Z,23.13
2023-03-10T11:05:17.952Z,23.52
2023-03-10T11:07:45.285Z,23.74
2023-03-10T11:10:16.643Z,22.69
2023-03-10T11:12:52.501Z,22.32
2023-03-10T11:15:23.216Z,22.51
2023-03-10T11:18:12.578Z,23.53
2023-03-10T11:20:52.004Z,23.85
2023-03-10T11:23:32.259Z,24.60
2023-03-10T11:26:10.964Z,24.86
2023-03-10T11:29:16.090Z,24.72
2023-03-10T11:32:27.544Z,24.03
2023-03-10T11:34:54.709Z,23.09
2023-03-10T11:37:59.959Z,22.29
2023-03-10T11:40:47.942Z,21.77
2023-03-10T11:43:24.977Z,22.67
2023-03-10T11:45:54.247Z,23.12
2023-03-10T11:48:38.266Z,23.66
2023-03-10T11:51:05.759Z,24.39
2023-03-10T11:53:38.671Z,24.16
2023-03-10T11:56:08.909Z,23.45
2023-03-10T11:58:47.630Z,24.00
2023-03-10T12:01:21.967Z,24.81
2023-03-10T12:04:13.331Z,23.83
2023-03-10T12:07:03.856Z,22.72
2023-03-10T12:09:30.953Z,24.02
2023-03-10T12:11:58.017Z,24.97
2023-03-10T12:14:25.476Z,24.98
2023-03-10T12:16:52.924Z,24.93
2023-03-10T12:19:19.690Z,24.60
2023-03-10T12:22:26.682Z,24.34
2023-03-10T12:24:53.436Z,24.45
2023-03-10T12:27:20.185Z,24.55
2023-03-10T12:29:46.931Z,25.13
2023-03-10T12:32:40.588Z,25.63
2023-03-10T12:35:41.389Z,25.32
2023-03-10T12:38:30.234Z,25.86
2023-03-10T12:40:58.281Z,25.77
2023-03-10T12:43:44.236Z,26.35
2023-03-10T12:46:44.652Z,26.43
2023-03-10T12:49:25.555Z,25.40
2023-03-10T12:52:27.445Z,24.10
2023-03-10T12:55:19.050Z,22.98
2023-03-10T12:58:04.126Z,22.14
2023-03-10T13:00:40.354Z,22.09
2023-03-10T13:03:27.349Z,22.70
2023-03-10T13:06:14.237Z,24.10
2023-03-10T13:08:59.173Z,25.32
2023-03-10T13:11:37.136Z,26.72
2023-03-10T13:14:10.301Z,26.89
2023-03-10T13:16:37.110Z,26.85
2023-03-10T13:19:04.827Z,26.31
2023-03-10T13:21:40.347Z,27.25
2023-03-10T13:24:26.533Z,27.59
2023-03-10T13:27:10.729Z,27.80
2023-03-10T13:29:37.688Z,26.13
2023-03-10T13:32:06.099Z,27.95
2023-03-10T13:34:33.784Z,28.42
2023-03-10T13:37:09.925Z,29.56
2023-03-10T13:39:37.175Z,28.98
2023-03-10T13:42:19.326Z,28.54
2023-03-10T13:44:47.426Z,29.08
2023-03-10T13:47:16.266Z,27.82
2023-03-10T13:49:48.106Z,27.85
2023-03-10T13:52:15.963Z,27.89
2023-03-10T13:54:42.956Z,28.83
2023-03-10T13:57:31.378Z,28.56
2023-03-10T13:59:58.631Z,29.03
2023-03-10T14:02:32.193Z,27.97
2023-03-10T14:05:00.681Z,28.06
2023-03-10T14:07:35.706Z,27.46
2023-03-10T14:10:05.127Z,28.00
2023-03-10T14:12:51.661Z,27.32
2023-03-10T14:15:30.889Z,27.53
2023-03-10T14:18:06.530Z,25.33
2023-03-10T14:20:41.528Z,25.71
2023-03-10T14:23:23.375Z,25.64
2023-03-10T14:25:52.727Z,24.29
2023-03-10T14:28:24.993Z,24.02
2023-03-10T14:30:52.235Z,23.56
2023-03-10T14:33:19.614Z,21.98
2023-03-10T14:35:46.744Z,22.59
2023-03-10T14:38:13.780Z,22.71
2023-03-10T14:40:46.338Z,22.09
2023-03-10T14:43:20.623Z,23.02
2023-03-10T14:45:49.084Z,24.57
2023-03-10T14:48:21.235Z,24.81
2023-03-10T14:50:48.578Z,25.20
2023-03-10T14:53:18.919Z,25.01
2023-03-10T14:55:50.392Z,23.93
2023-03-10T14:58:23.662Z,22.51
2023-03-10T15:00:50.897Z,21.77
2023-03-10T15:03:17.678Z,20.06
2023-03-10T15:05:48.760Z,19.15
2023-03-10T15:08:16.991Z,18.38
2023-03-10T15:10:50.510Z,18.51
2023-03-10T15:13:23.000Z,18.63
2023-03-10T15:15:50.080Z,18.30
2023-03-10T15:18:19.876Z,18.84
2023-03-10T15:20:46.703Z,18.07
2023-03-10T15:23:17.542Z,17.31
2023-03-10T15:25:46.184Z,16.79
2023-03-10T15:28:13.896Z,16.38
2023-03-10T15:30:42.116Z,15.89
2023-03-10T15:33:10.797Z,15.67
2023-03-10T15:35:38.008Z,15.53
2023-03-10T15:38:04.892Z,15.40
2023-03-10T15:40:32.978Z,15.31
2023-03-10T15:43:00.014Z,15.17
2023-03-10T15:45:29.536Z,15.03
2023-03-10T15:47:57.078Z,14.96
2023-03-10T15:50:24.327Z,14.87
2023-03-10T15:52:58.217Z,14.84
2023-03-10T15:55:27.124Z,14.80
2023-03-10T15:57:53.941Z,14.70
2023-03-10T16:00:23.102Z,14.65
2023-03-10T16:02:50.829Z,14.60
2023-03-10T16:05:18.221Z,14.54
2023-03-10T16:07:45.099Z,14.32
2023-03-10T16:10:14.555Z,13.78
2023-03-10T16:12:41.593Z,13.32
2023-03-10T16:15:09.174Z,13.05
2023-03-10T16:17:35.861Z,12.84
2023-03-10T16:20:07.287Z,12.73
2023-03-10T16:22:34.069Z,12.69
2023-03-10T16:25:01.002Z,12.70
2023-03-10T16:27:27.705Z,12.72
2023-03-10T16:29:54.420Z,12.65
2023-03-10T16:32:21.109Z,12.67
2023-03-10T16:34:48.078Z,12.68
2023-03-10T16:37:14.866Z,12.63
2023-03-10T16:39:41.541Z,12.64
2023-03-10T16:42:08.347Z,12.65
2023-03-10T16:44:35.012Z,12.64
2023-03-10T16:47:01.825Z,12.60
2023-03-10T16:49:28.653Z,12.57
2023-03-10T16:51:55.404Z,12.56
2023-03-10T16:54:22.525Z,12.57
2023-03-10T16:56:51.141Z,12.52
2023-03-10T16:59:20.688Z,12.51
2023-03-10T17:01:48.196Z,12.52
2023-03-10T17:04:15.177Z,12.56
2023-03-10T17:06:42.264Z,12.60
2023-03-10T17:09:09.726Z,12.61
2023-03-10T17:11:38.968Z,12.60
2023-03-10T17:14:08.824Z,12.57
2023-03-10T17:16:36.781Z,12.57
2023-03-10T17:19:10.478Z,12.60
2023-03-10T17:21:39.390Z,12.59
2023-03-10T17:24:09.219Z,12.65
2023-03-10T17:26:36.296Z,12.76
2023-03-10T17:29:03.697Z,12.76
2023-03-10T17:31:30.864Z,12.72
2023-03-10T17:33:59.943Z,12.69
2023-03-10T17:36:27.351Z,12.70
2023-03-10T17:38:55.551Z,12.69
2023-03-10T17:41:22.589Z,12.66
2023-03-10T17:43:49.835Z,12.66
2023-03-10T17:46:36.067Z,12.75
2023-03-10T17:49:02.864Z,12.77
2023-03-10T17:51:30.806Z,12.81
2023-03-10T17:53:59.656Z,12.82
2023-03-10T17:56:27.579Z,12.83
2023-03-10T17:58:57.975Z,12.85
2023-03-10T18:01:27.602Z,12.86
2023-03-10T18:03:58.524Z,12.94
2023-03-10T18:06:28.345Z,12.96
2023-03-10T18:08:56.532Z,12.95
2023-03-10T18:11:24.486Z,12.90
2023-03-10T18:13:51.764Z,12.96
2023-03-10T18:16:23.562Z,12.91
2023-03-10T18:18:50.717Z,12.91
2023-03-10T18:21:18.330Z,12.91
2023-03-10T18:23:45.653Z,12.95
2023-03-10T18:26:14.877Z,12.87
2023-03-10T18:28:41.833Z,12.88
2023-03-10T18:31:11.166Z,12.65
2023-03-10T18:33:37.881Z,12.50
2023-03-10T18:36:06.806Z,12.33
2023-03-10T18:38:34.027Z,12.23
2023-03-10T18:41:02.031Z,12.10
2023-03-10T18:43:29.365Z,12.03
2023-03-10T18:45:56.568Z,12.00
2023-03-10T18:48:28.278Z,11.96
2023-03-10T18:50:56.433Z,11.93
2023-03-10T18:53:23.766Z,11.88
2023-03-10T18:55:50.508Z,11.81
2023-03-10T18:58:17.218Z,11.77
2023-03-10T19:00:43.977Z,11.74
2023-03-10T19:03:13.127Z,11.70
2023-03-10T19:05:40.940Z,11.68
2023-03-10T19:08:07.973Z,11.67
2023-03-10T19:10:34.677Z,11.65
2023-03-10T19:13:01.387Z,11.61
2023-03-10T19:15:28.156Z,11.54
2023-03-10T19:17:54.896Z,11.54
2023-03-10T19:20:21.755Z,11.53
2023-03-10T19:22:52.258Z,11.51
2023-03-10T19:25:19.774Z,11.47
2023-03-10T19:27:48.856Z,11.48
2023-03-10T19:30:20.101Z,11.48
2023-03-10T19:32:47.541Z,11.41
2023-03-10T19:35:15.120Z,11.39
2023-03-10T19:37:46.118Z,11.40
2023-03-10T19:40:15.734Z,11.42
2023-03-10T19:42:45.234Z,11.29
2023-03-10T19:45:16.885Z,11.22
2023-03-10T19:47:44.050Z,11.20
2023-03-10T19:50:13.386Z,11.16
2023-03-10T19:52:47.963Z,11.04
2023-03-10T19:55:20.243Z,10.93
2023-03-10T19:57:48.619Z,10.85
2023-03-10T20:00:18.776Z,10.83
2023-03-10T20:02:45.975Z,10.77
2023-03-10T20:05:16.231Z,10.75
2023-03-10T20:07:46.387Z,10.72
2023-03-10T20:10:15.491Z,10.70
2023-03-10T20:12:42.426Z,10.69
2023-03-10T20:15:10.370Z,10.66
2023-03-10T20:17:37.149Z,10.60
2023-03-10T20:20:10.638Z,10.52
2023-03-10T20:22:39.887Z,10.50
2023-03-10T20:25:08.635Z,10.52
2023-03-10T20:27:35.533Z,10.53
2023-03-10T20:30:07.399Z,10.49
2023-03-10T20:32:34.525Z,10.40
2023-03-10T20:35:02.670Z,10.37
2023-03-10T20:37:29.381Z,10.28
2023-03-10T20:39:56.128Z,10.26
2023-03-10T20:42:22.893Z,10.26
2023-03-10T20:44:49.553Z,10.36
2023-03-10T20:47:16.258Z,10.41
2023-03-10T20:49:43.732Z,10.47
2023-03-10T20:52:10.442Z,10.44
2023-03-10T20:54:37.112Z,10.47
2023-03-10T20:57:03.816Z,10.45
2023-03-10T20:59:30.546Z,10.49
2023-03-10T21:01:57.273Z,10.50
2023-03-10T21:04:24.040Z,10.44
2023-03-10T21:06:50.779Z,10.44
2023-03-10T21:09:19.085Z,10.44
2023-03-10T21:11:45.754Z,10.38
2023-03-10T21:14:12.536Z,10.32
2023-03-10T21:16:41.610Z,10.23
2023-03-10T21:19:09.681Z,10.20
2023-03-10T21:21:36.599Z,10.16
2023-03-10T21:24:05.085Z,10.13
2023-03-10T21:26:32.068Z,10.10
2023-03-10T21:29:00.138Z,10.13
2023-03-10T21:31:26.953Z,10.08
2023-03-10T21:33:53.865Z,10.03
2023-03-10T21:36:22.725Z,10.09
2023-03-10T21:38:51.007Z,10.10
2023-03-10T21:41:30.918Z,10.08
2023-03-10T21:43:58.533Z,10.10
2023-03-10T21:46:26.029Z,10.11
2023-03-10T21:48:52.950Z,10.11
2023-03-10T21:51:23.062Z,10.15
2023-03-10T21:53:50.891Z,10.17
2023-03-10T21:56:17.910Z,10.22
2023-03-10T21:58:45.855Z,10.21
2023-03-10T22:01:14.648Z,10.22
2023-03-10T22:03:42.255Z,10.17
2023-03-10T22:06:09.469Z,10.16
2023-03-10T22:08:37.469Z,10.16
2023-03-10T22:11:08.751Z,10.18
2023-03-10T22:13:36.808Z,10.14
2023-03-10T22:16:04.755Z,10.05
2023-03-10T22:18:31.668Z,10.04
2023-03-10T22:20:58.382Z,10.06
2023-03-10T22:23:25.098Z,10.05
2023-03-10T22:25:51.918Z,10.06
2023-03-10T22:28:18.618Z,10.05
2023-03-10T22:30:45.357Z,10.05
2023-03-10T22:33:12.131Z,10.01
2023-03-10T22:35:38.988Z,10.01
2023-03-10T22:38:05.998Z,10.01
2023-03-10T22:40:32.809Z,9.98
2023-03-10T22:42:59.627Z,9.98
2023-03-10T22:45:28.870Z,9.97
2023-03-10T22:47:58.121Z,9.94
2023-03-10T22:50:39.427Z,9.78
2023-03-10T22:53:09.458Z,9.77
2023-03-10T22:55:36.282Z,9.75
2023-03-10T22:58:04.593Z,9.73
2023-03-10T23:00:32.317Z,9.71
2023-03-10T23:02:59.418Z,9.70
2023-03-10T23:05:26.915Z,9.66
2023-03-10T23:07:54.829Z,9.66
2023-03-10T23:10:26.920Z,9.63
2023-03-10T23:12:54.609Z,9.63
2023-03-10T23:15:33.481Z,9.65
2023-03-10T23:18:00.483Z,9.57
2023-03-10T23:20:29.783Z,9.53
2023-03-10T23:22:57.769Z,9.46
2023-03-10T23:25:38.260Z,9.36
2023-03-10T23:28:06.624Z,9.29
2023-03-10T23:30:34.379Z,9.22
2023-03-10T23:33:01.149Z,9.16
2023-03-10T23:35:30.049Z,9.08
2023-03-10T23:37:57.578Z,9.04
2023-03-10T23:40:27.010Z,9.01
2023-03-10T23:42:54.892Z,8.94
2023-03-10T23:45:22.950Z,8.84
2023-03-10T23:47:50.438Z,8.73
2023-03-10T23:50:20.674Z,8.66
2023-03-10T23:52:47.966Z,8.59
2023-03-10T23:55:18.829Z,8.57
2023-03-10T23:57:45.542Z,8.52
